Time;durP1;ratioP1;P1;durP2;ratioP2;P2;SDS_P1;SDS_P2;PMS_P1;PMS_P2;Temp;Humidity;BMP_temperature;BMP_pressure;BME280_temperature;BME280_humidity;BME280_pressure;Samples;Min_cycle;Max_cycle;Signal;HPM_P1;HPM_P2
2023/12/16 00:00:07;;;;;;;0.30;0.20;;;;;;;7.66;100.00;102619.28;5074015;28;20454;-53
2023/12/16 00:02:34;;;;;;;0.87;0.87;;;;;;;7.63;100.00;102613.94;5073218;28;20520;-53
2023/12/16 00:05:00;;;;;;;0.30;0.20;;;;;;;7.73;100.00;102611.53;5074162;28;20445;-53
2023/12/16 00:07:27;;;;;;;0.30;0.20;;;;;;;7.61;100.00;102610.38;5068040;28;20456;-53
2023/12/16 00:09:53;;;;;;;0.30;0.20;;;;;;;7.57;100.00;102612.06;5066555;28;20472;-53
2023/12/16 00:12:20;;;;;;;0.30;0.20;;;;;;;7.51;100.00;102611.03;5073911;28;20974;-53
2023/12/16 00:14:47;;;;;;;0.30;0.20;;;;;;;7.42;100.00;102617.94;5073918;28;20918;-53
2023/12/16 00:17:13;;;;;;;0.30;0.20;;;;;;;7.32;100.00;102618.56;5073266;28;20449;-52
2023/12/16 00:19:40;;;;;;;0.30;0.17;;;;;;;7.27;100.00;102616.69;5067055;28;20990;-52
2023/12/16 00:22:06;;;;;;;0.30;0.20;;;;;;;7.36;100.00;102622.16;5073176;28;20557;-52
2023/12/16 00:24:33;;;;;;;0.30;0.20;;;;;;;7.37;100.00;102627.50;5074078;28;20494;-52
2023/12/16 00:26:59;;;;;;;0.30;0.20;;;;;;;7.31;100.00;102629.13;5074039;28;20441;-52
2023/12/16 00:29:26;;;;;;;0.30;0.20;;;;;;;7.13;100.00;102634.91;5074400;28;20449;-52
2023/12/16 00:31:52;;;;;;;0.30;0.20;;;;;;;7.24;100.00;102629.81;5073052;28;20481;-53
2023/12/16 00:34:19;;;;;;;0.30;0.10;;;;;;;7.32;100.00;102630.91;5074564;28;20553;-53
2023/12/16 00:36:46;;;;;;;0.30;0.20;;;;;;;7.23;100.00;102631.59;5073217;28;20449;-52
2023/12/16 00:39:12;;;;;;;0.30;0.20;;;;;;;7.21;100.00;102630.66;5076011;28;20446;-51
2023/12/16 00:41:39;;;;;;;0.30;0.20;;;;;;;7.19;100.00;102637.66;5077763;28;20473;-52
2023/12/16 00:44:05;;;;;;;0.30;0.20;;;;;;;7.17;100.00;102639.38;5078470;28;20491;-52
2023/12/16 00:46:33;;;;;;;0.30;0.20;;;;;;;7.16;100.00;102634.97;5078465;28;20481;-52
2023/12/16 00:48:59;;;;;;;0.30;0.20;;;;;;;7.19;100.00;102635.03;5065757;28;20542;-51
2023/12/16 00:51:26;;;;;;;0.30;0.20;;;;;;;7.24;100.00;102630.72;5064411;28;20485;-52
2023/12/16 00:53:52;;;;;;;0.30;0.20;;;;;;;7.26;100.00;102644.88;5077872;28;20897;-52
2023/12/16 00:56:19;;;;;;;0.30;0.20;;;;;;;7.26;100.00;102652.81;5070985;28;20829;-52
2023/12/16 00:58:49;;;;;;;0.30;0.20;;;;;;;7.18;100.00;102642.94;5070904;28;20441;-52
2023/12/16 01:01:15;;;;;;;0.30;0.20;;;;;;;7.22;100.00;102650.97;5077850;28;20549;-52
2023/12/16 01:03:42;;;;;;;0.30;0.20;;;;;;;7.09;100.00;102636.56;5077605;28;20489;-52
2023/12/16 01:06:09;;;;;;;0.30;0.20;;;;;;;7.19;100.00;102628.84;5077742;28;20857;-52
2023/12/16 01:08:35;;;;;;;0.30;0.20;;;;;;;6.96;100.00;102620.34;5064308;28;21042;-52
2023/12/16 01:11:02;;;;;;;0.30;0.20;;;;;;;7.05;100.00;102620.59;5077838;28;20545;-52
2023/12/16 01:13:28;;;;;;;0.30;0.20;;;;;;;7.11;100.00;102615.44;5077817;28;20534;-51
2023/12/16 01:15:55;;;;;;;0.40;0.40;;;;;;;7.34;100.00;102615.97;5077582;28;20507;-52
2023/12/16 01:18:23;;;;;;;0.30;0.20;;;;;;;7.26;100.00;102614.88;5070663;28;20447;-52
2023/12/16 01:20:50;;;;;;;0.30;0.20;;;;;;;6.94;100.00;102615.03;5077142;28;20450;-53
2023/12/16 01:23:17;;;;;;;0.30;0.20;;;;;;;6.88;100.00;102627.22;5077388;28;20564;-52
2023/12/16 01:25:43;;;;;;;0.30;0.20;;;;;;;6.91;100.00;102629.94;5078097;28;20533;-52
2023/12/16 01:28:10;;;;;;;0.30;0.20;;;;;;;7.15;100.00;102630.53;5077820;28;20454;-52
2023/12/16 01:30:37;;;;;;;0.30;0.20;;;;;;;7.17;100.00;102642.03;5077645;28;20510;-52
2023/12/16 01:33:04;;;;;;;0.30;0.20;;;;;;;7.08;100.00;102636.53;5076742;28;20475;-51
2023/12/16 01:35:30;;;;;;;0.30;0.20;;;;;;;7.05;100.00;102649.66;5077287;28;20453;-52
2023/12/16 01:37:57;;;;;;;2.53;2.43;;;;;;;7.21;100.00;102646.53;5077250;28;20456;-52
2023/12/16 01:40:23;;;;;;;0.30;0.20;;;;;;;7.31;100.00;102645.88;5076433;28;20931;-52
2023/12/16 01:42:49;;;;;;;0.30;0.20;;;;;;;7.43;100.00;102645.28;5076311;28;20474;-52
2023/12/16 01:45:18;;;;;;;0.30;0.20;;;;;;;7.27;100.00;102645.78;5077061;28;20454;-52
2023/12/16 01:47:46;;;;;;;0.30;0.10;;;;;;;7.27;100.00;102651.97;5074129;28;20478;-53
2023/12/16 01:50:13;;;;;;;0.30;0.20;;;;;;;7.16;100.00;102649.94;5066912;28;20475;-52
2023/12/16 01:52:41;;;;;;;0.30;0.20;;;;;;;7.25;100.00;102650.13;5075796;28;20842;-52
2023/12/16 01:55:09;;;;;;;0.30;0.20;;;;;;;7.32;100.00;102646.78;5076892;28;20454;-52
2023/12/16 01:57:36;;;;;;;0.30;0.20;;;;;;;7.24;100.00;102651.00;5063421;28;20959;-52
2023/12/16 02:00:03;;;;;;;0.30;0.20;;;;;;;7.24;100.00;102649.22;5076954;28;20450;-52
2023/12/16 02:02:31;;;;;;;0.30;0.20;;;;;;;7.26;100.00;102647.50;5076562;28;20470;-52
2023/12/16 02:04:58;;;;;;;0.30;0.20;;;;;;;7.29;100.00;102644.97;5076606;28;20470;-52
2023/12/16 02:07:24;;;;;;;0.30;0.20;;;;;;;7.42;100.00;102654.06;5071454;28;20438;-52
2023/12/16 02:09:51;;;;;;;0.30;0.20;;;;;;;7.35;100.00;102647.72;5068412;28;20450;-51
2023/12/16 02:12:19;;;;;;;0.30;0.20;;;;;;;7.41;100.00;102647.00;5076145;28;20470;-52
2023/12/16 02:14:46;;;;;;;0.30;0.20;;;;;;;7.43;100.00;102650.56;5076585;28;20446;-51
2023/12/16 02:17:12;;;;;;;0.30;0.20;;;;;;;7.29;100.00;102652.91;5076444;28;20826;-52
2023/12/16 02:19:44;;;;;;;0.30;0.20;;;;;;;7.29;100.00;102655.53;5070353;28;20454;-52
2023/12/16 02:22:10;;;;;;;0.30;0.20;;;;;;;7.37;100.00;102656.59;5056249;28;21062;-52
2023/12/16 02:24:38;;;;;;;0.30;0.20;;;;;;;7.33;100.00;102660.03;5056389;28;20494;-52
2023/12/16 02:27:04;;;;;;;0.30;0.20;;;;;;;7.37;100.00;102664.53;5056512;28;20453;-52
2023/12/16 02:29:31;;;;;;;0.30;0.20;;;;;;;7.18;100.00;102672.91;5056558;28;20457;-52
2023/12/16 02:31:57;;;;;;;0.30;0.20;;;;;;;7.33;100.00;102667.09;5055921;28;20470;-52
2023/12/16 02:34:24;;;;;;;0.30;0.20;;;;;;;7.41;100.00;102682.28;5056457;28;20453;-52
2023/12/16 02:36:50;;;;;;;0.30;0.20;;;;;;;7.37;100.00;102682.16;5055534;28;20451;-51
2023/12/16 02:39:17;;;;;;;0.30;0.20;;;;;;;7.37;100.00;102677.75;5054793;28;20450;-52
2023/12/16 02:41:43;;;;;;;0.30;0.20;;;;;;;7.34;100.00;102679.44;5054966;28;20572;-53
2023/12/16 02:44:10;;;;;;;0.30;0.20;;;;;;;7.08;100.00;102687.66;5054349;28;20487;-52
2023/12/16 02:46:36;;;;;;;0.30;0.20;;;;;;;7.07;100.00;102692.91;5054518;28;21017;-52
2023/12/16 02:49:03;;;;;;;0.30;0.20;;;;;;;7.09;100.00;102686.78;5054374;28;20478;-52
2023/12/16 02:51:29;;;;;;;0.30;0.20;;;;;;;7.15;100.00;102678.13;5054846;28;21047;-52
2023/12/16 02:53:56;;;;;;;0.30;0.20;;;;;;;7.23;100.00;102675.66;5068156;28;20857;-51
2023/12/16 02:56:22;;;;;;;0.30;0.20;;;;;;;7.22;100.00;102679.16;5067247;28;20542;-52
2023/12/16 02:58:50;;;;;;;0.30;0.20;;;;;;;7.13;100.00;102682.50;5068427;28;21045;-52
2023/12/16 03:01:16;;;;;;;0.30;0.10;;;;;;;7.19;100.00;102687.03;5073679;28;20472;-52
2023/12/16 03:03:43;;;;;;;0.30;0.20;;;;;;;7.16;100.00;102693.16;5073987;28;20485;-52
2023/12/16 03:06:09;;;;;;;0.30;0.20;;;;;;;7.17;100.00;102683.47;5073765;28;20943;-52
2023/12/16 03:08:36;;;;;;;0.30;0.20;;;;;;;7.18;100.00;102679.94;5060179;28;20936;-52
2023/12/16 03:11:03;;;;;;;0.30;0.20;;;;;;;7.15;100.00;102683.44;5074404;28;20519;-52
2023/12/16 03:13:30;;;;;;;0.30;0.20;;;;;;;7.25;100.00;102688.06;5074931;28;20473;-51
2023/12/16 03:15:56;;;;;;;0.30;0.20;;;;;;;7.15;100.00;102677.25;5075694;28;20511;-51
2023/12/16 03:18:23;;;;;;;0.30;0.20;;;;;;;7.06;100.00;102675.25;5069059;28;20458;-51
2023/12/16 03:20:50;;;;;;;0.30;0.20;;;;;;;7.04;100.00;102669.94;5075666;28;20466;-52
2023/12/16 03:23:17;;;;;;;2.10;2.00;;;;;;;7.20;100.00;102673.84;5075226;28;20501;-52
2023/12/16 03:25:43;;;;;;;0.30;0.20;;;;;;;7.07;100.00;102677.94;5075842;28;20454;-52
2023/12/16 03:28:10;;;;;;;0.30;0.20;;;;;;;7.16;100.00;102681.66;5075088;28;20450;-51
2023/12/16 03:30:39;;;;;;;0.30;0.20;;;;;;;7.30;100.00;102673.22;5075526;28;20466;-51
2023/12/16 03:33:07;;;;;;;0.30;0.20;;;;;;;7.11;100.00;102676.25;5075620;28;20472;-51
2023/12/16 03:35:33;;;;;;;0.30;0.20;;;;;;;7.04;100.00;102682.25;5075519;28;20484;-52
2023/12/16 03:38:00;;;;;;;0.30;0.20;;;;;;;7.05;100.00;102686.69;5075524;28;21010;-52
2023/12/16 03:40:27;;;;;;;0.30;0.30;;;;;;;7.11;100.00;102690.38;5075593;28;20541;-52
2023/12/16 03:42:54;;;;;;;0.30;0.20;;;;;;;7.08;100.00;102681.47;5075677;28;20528;-52
2023/12/16 03:45:20;;;;;;;0.30;0.20;;;;;;;7.08;100.00;102677.06;5076174;28;20512;-51
2023/12/16 03:47:47;;;;;;;0.30;0.20;;;;;;;7.17;100.00;102679.06;5075064;28;20542;-51
2023/12/16 03:50:14;;;;;;;0.30;0.20;;;;;;;7.05;100.00;102673.47;5075307;28;20453;-52
2023/12/16 03:52:40;;;;;;;0.30;0.20;;;;;;;6.98;100.00;102675.06;5074816;28;20532;-50
2023/12/16 03:55:07;;;;;;;0.30;0.20;;;;;;;7.04;100.00;102679.63;5063071;28;20542;-50
2023/12/16 03:57:33;;;;;;;0.30;0.20;;;;;;;7.13;100.00;102683.41;5066916;28;20496;-50
2023/12/16 04:00:00;;;;;;;0.30;0.20;;;;;;;7.01;100.00;102672.50;5071473;28;20456;-50
2023/12/16 04:02:26;;;;;;;0.30;0.20;;;;;;;7.08;100.00;102674.44;5071239;28;20998;-50
2023/12/16 04:04:53;;;;;;;0.30;0.20;;;;;;;7.13;100.00;102678.09;5079759;28;20498;-50
2023/12/16 04:07:19;;;;;;;0.30;0.20;;;;;;;7.02;100.00;102679.59;5056001;28;20451;-51
2023/12/16 04:09:46;;;;;;;0.30;0.20;;;;;;;7.07;100.00;102677.03;5062403;28;20799;-50
2023/12/16 04:12:13;;;;;;;0.30;0.20;;;;;;;7.05;100.00;102679.66;5071227;28;20772;-51
2023/12/16 04:14:39;;;;;;;0.30;0.20;;;;;;;7.04;100.00;102674.34;5075219;28;20565;-51
2023/12/16 04:17:06;;;;;;;0.30;0.20;;;;;;;6.96;100.00;102674.13;5075353;28;20943;-50
2023/12/16 04:19:32;;;;;;;0.30;0.20;;;;;;;7.08;100.00;102671.78;5069369;28;20452;-51
2023/12/16 04:21:59;;;;;;;0.30;0.20;;;;;;;7.11;100.00;102676.25;5075461;28;20476;-51
2023/12/16 04:24:25;;;;;;;0.30;0.20;;;;;;;6.97;100.00;102665.34;5075298;28;20481;-51
2023/12/16 04:26:52;;;;;;;0.30;0.20;;;;;;;7.03;100.00;102665.50;5075109;28;20453;-50
2023/12/16 04:29:18;;;;;;;0.30;0.20;;;;;;;6.95;100.00;102656.47;5075047;28;20532;-50
2023/12/16 04:31:45;;;;;;;0.30;0.20;;;;;;;6.99;100.00;102665.38;5075188;28;20938;-50
2023/12/16 04:34:11;;;;;;;0.30;0.20;;;;;;;6.92;100.00;102663.44;5075277;28;20446;-50
2023/12/16 04:36:38;;;;;;;0.30;0.20;;;;;;;6.96;100.00;102667.94;5075387;28;20449;-50
2023/12/16 04:39:07;;;;;;;0.30;0.20;;;;;;;6.89;100.00;102658.09;5075202;28;20536;-51
2023/12/16 04:41:34;;;;;;;0.30;0.20;;;;;;;6.90;100.00;102657.25;5074745;28;20465;-50
2023/12/16 04:44:00;;;;;;;0.30;0.20;;;;;;;6.90;100.00;102659.88;5074780;28;20997;-50
2023/12/16 04:46:26;;;;;;;0.30;0.20;;;;;;;6.80;100.00;102659.63;5075284;28;20456;-50
2023/12/16 04:48:54;;;;;;;0.30;0.20;;;;;;;6.76;100.00;102667.47;5063177;28;20478;-50
2023/12/16 04:51:20;;;;;;;0.30;0.20;;;;;;;6.82;100.00;102663.22;5061583;28;20450;-50
2023/12/16 04:53:47;;;;;;;0.30;0.20;;;;;;;6.95;100.00;102664.41;5074596;28;20469;-50
2023/12/16 04:56:13;;;;;;;0.30;0.20;;;;;;;6.86;100.00;102664.22;5067540;28;21310;-50
2023/12/16 04:58:40;;;;;;;0.30;0.20;;;;;;;6.83;100.00;102672.94;5068381;28;20540;-50
2023/12/16 05:01:06;;;;;;;0.30;0.20;;;;;;;6.94;100.00;102669.66;5074769;28;20460;-51
2023/12/16 05:03:33;;;;;;;0.30;0.20;;;;;;;6.78;100.00;102673.69;5073120;28;20446;-50
2023/12/16 05:06:00;;;;;;;0.30;0.20;;;;;;;6.84;100.00;102674.72;5073743;28;20448;-50
2023/12/16 05:08:27;;;;;;;0.30;0.20;;;;;;;6.82;100.00;102671.13;5061212;28;20489;-51
2023/12/16 05:10:53;;;;;;;0.30;0.20;;;;;;;6.76;100.00;102670.09;5074441;28;20473;-50
2023/12/16 05:13:20;;;;;;;0.30;0.20;;;;;;;6.95;100.00;102684.66;5074418;28;20469;-50
2023/12/16 05:15:46;;;;;;;0.30;0.20;;;;;;;6.76;100.00;102678.94;5074527;28;20442;-50
2023/12/16 05:18:13;;;;;;;0.30;0.20;;;;;;;6.86;100.00;102684.47;5067962;28;20447;-50
2023/12/16 05:20:39;;;;;;;0.30;0.20;;;;;;;6.90;100.00;102681.94;5061500;28;20454;-51
2023/12/16 05:23:06;;;;;;;0.30;0.20;;;;;;;6.79;100.00;102691.31;5073971;28;20979;-50
2023/12/16 05:25:32;;;;;;;0.30;0.10;;;;;;;6.90;100.00;102688.97;5072029;28;20921;-50
2023/12/16 05:27:59;;;;;;;0.30;0.20;;;;;;;6.81;100.00;102687.84;5074213;28;20454;-50
2023/12/16 05:30:25;;;;;;;0.30;0.20;;;;;;;6.80;100.00;102675.50;5074181;28;20507;-51
2023/12/16 05:32:52;;;;;;;0.30;0.20;;;;;;;6.97;100.00;102681.19;5073985;28;20619;-50
2023/12/16 05:35:19;;;;;;;0.30;0.20;;;;;;;6.97;100.00;102677.66;5074069;28;20537;-50
2023/12/16 05:37:47;;;;;;;0.30;0.10;;;;;;;7.02;100.00;102684.88;5073838;28;20450;-50
2023/12/16 05:40:13;;;;;;;0.30;0.20;;;;;;;6.92;100.00;102681.97;5073926;28;20445;-49
2023/12/16 05:42:40;;;;;;;0.30;0.20;;;;;;;6.76;100.00;102685.97;5073776;28;20477;-50
2023/12/16 05:45:07;;;;;;;0.30;0.20;;;;;;;6.74;100.00;102696.50;5074160;28;20576;-50
2023/12/16 05:47:34;;;;;;;0.30;0.20;;;;;;;6.93;100.00;102704.91;5073606;28;20586;-50
2023/12/16 05:50:02;;;;;;;0.30;0.20;;;;;;;6.93;100.00;102700.50;5073733;28;20446;-51
2023/12/16 05:52:30;;;;;;;0.30;0.20;;;;;;;7.15;100.00;102704.59;5073114;28;20977;-50
2023/12/16 05:54:57;;;;;;;0.30;0.20;;;;;;;7.13;100.00;102693.06;5073897;28;20442;-50
2023/12/16 05:57:23;;;;;;;0.30;0.20;;;;;;;7.19;99.64;102692.31;5060110;28;20458;-57
2023/12/16 05:59:49;;;;;;;0.30;0.10;;;;;;;7.16;100.00;102698.44;5067615;28;20544;-51
2023/12/16 06:02:16;;;;;;;0.30;0.20;;;;;;;7.08;100.00;102703.53;5068528;28;20473;-51
2023/12/16 06:04:43;;;;;;;0.30;0.20;;;;;;;7.15;100.00;102706.34;5073350;28;20490;-50
2023/12/16 06:07:10;;;;;;;0.30;0.17;;;;;;;6.96;100.00;102710.25;5070150;28;20439;-51
2023/12/16 06:09:36;;;;;;;0.30;0.20;;;;;;;7.08;100.00;102715.84;5060399;28;20469;-51
2023/12/16 06:12:03;;;;;;;0.30;0.20;;;;;;;6.87;100.00;102715.31;5057692;28;20469;-50
2023/12/16 06:14:30;;;;;;;0.30;0.20;;;;;;;6.59;100.00;102722.53;5055553;28;20936;-51
2023/12/16 06:16:56;;;;;;;0.30;0.20;;;;;;;6.62;100.00;102722.59;5069896;28;20868;-50
2023/12/16 06:19:23;;;;;;;0.30;0.20;;;;;;;6.74;100.00;102722.94;5071498;28;20438;-51
2023/12/16 06:21:54;;;;;;;0.30;0.20;;;;;;;6.67;100.00;102720.97;5072713;28;20473;-51
2023/12/16 06:24:20;;;;;;;2.50;2.40;;;;;;;6.65;100.00;102725.31;5073133;28;20496;-51
2023/12/16 06:26:47;;;;;;;0.30;0.20;;;;;;;6.56;100.00;102726.81;5063656;28;20450;-50
2023/12/16 06:29:13;;;;;;;0.30;0.20;;;;;;;6.65;100.00;102724.44;5069293;28;20453;-50
2023/12/16 06:31:40;;;;;;;0.30;0.20;;;;;;;6.64;100.00;102723.53;5072612;28;20469;-51
2023/12/16 06:34:06;;;;;;;0.30;0.20;;;;;;;6.73;100.00;102720.25;5062353;28;20451;-51
2023/12/16 06:36:33;;;;;;;0.30;0.10;;;;;;;6.65;100.00;102722.69;5067545;28;20809;-51
2023/12/16 06:38:59;;;;;;;0.30;0.20;;;;;;;6.72;100.00;102723.75;5073113;28;20541;-52
2023/12/16 06:41:29;;;;;;;0.30;0.20;;;;;;;6.66;100.00;102726.22;5084272;28;20465;-51
2023/12/16 06:43:55;;;;;;;0.30;0.20;;;;;;;6.58;100.00;102731.31;5072711;28;20536;-51
2023/12/16 06:46:23;;;;;;;0.30;0.20;;;;;;;6.48;100.00;102719.59;5072394;28;20496;-52
2023/12/16 06:48:50;;;;;;;0.30;0.20;;;;;;;6.40;100.00;102722.84;5060924;28;20538;-52
2023/12/16 06:51:17;;;;;;;0.30;0.20;;;;;;;6.40;100.00;102725.50;5071347;28;20450;-52
2023/12/16 06:53:44;;;;;;;0.30;0.20;;;;;;;6.47;100.00;102722.19;5071082;28;20532;-52
2023/12/16 06:56:10;;;;;;;0.30;0.20;;;;;;;6.52;100.00;102725.84;5066889;28;20999;-51
2023/12/16 06:58:46;;;;;;;0.30;0.20;;;;;;;6.59;100.00;102724.28;5069120;28;20540;-53
2023/12/16 07:01:14;;;;;;;0.30;0.20;;;;;;;6.50;100.00;102736.38;5068932;28;20548;-52
2023/12/16 07:03:40;;;;;;;0.30;0.20;;;;;;;6.61;100.00;102731.38;5058257;28;20549;-49
2023/12/16 07:06:09;;;;;;;0.30;0.17;;;;;;;6.57;100.00;102736.53;5065822;28;20500;-50
2023/12/16 07:08:36;;;;;;;1.30;1.20;;;;;;;6.68;100.00;102732.44;5064189;28;20492;-51
2023/12/16 07:11:03;;;;;;;0.30;0.20;;;;;;;6.61;100.00;102734.03;5051907;23;20888;-51
2023/12/16 07:13:30;;;;;;;0.30;0.20;;;;;;;6.62;100.00;102741.09;5021610;28;20456;-54
2023/12/16 07:15:57;;;;;;;0.30;0.20;;;;;;;6.67;100.00;102741.22;5015053;28;20449;-51
2023/12/16 07:18:23;;;;;;;0.30;0.20;;;;;;;6.64;100.00;102743.78;5017195;28;20963;-51
2023/12/16 07:20:50;;;;;;;0.30;0.20;;;;;;;6.76;100.00;102744.13;5020013;28;20563;-52
2023/12/16 07:23:16;;;;;;;0.30;0.20;;;;;;;6.77;100.00;102753.84;5012331;28;20542;-51
2023/12/16 07:25:43;;;;;;;0.30;0.20;;;;;;;6.75;100.00;102752.91;5020250;28;20513;-54
2023/12/16 07:28:09;;;;;;;0.30;0.20;;;;;;;6.78;100.00;102753.88;5009739;28;20500;-55
2023/12/16 07:30:36;;;;;;;0.30;0.10;;;;;;;6.88;100.00;102770.88;5024051;28;21025;-54
2023/12/16 07:33:04;;;;;;;0.30;0.20;;;;;;;6.89;100.00;102762.09;5013587;28;20896;-54
2023/12/16 07:35:30;;;;;;;0.30;0.17;;;;;;;6.58;100.00;102762.09;5018062;28;20452;-54
2023/12/16 07:37:57;;;;;;;0.30;0.20;;;;;;;6.78;100.00;102763.56;5014811;28;20543;-54
2023/12/16 07:40:23;;;;;;;0.30;0.20;;;;;;;6.82;100.00;102752.19;5019049;28;20551;-54
2023/12/16 07:42:50;;;;;;;0.30;0.20;;;;;;;6.84;100.00;102758.41;5008384;28;20949;-51
2023/12/16 07:45:16;;;;;;;0.30;0.20;;;;;;;6.96;100.00;102755.19;5011731;28;20453;-52
2023/12/16 07:47:43;;;;;;;0.30;0.20;;;;;;;6.93;100.00;102755.13;5014562;28;20489;-52
2023/12/16 07:50:11;;;;;;;0.30;0.20;;;;;;;7.04;100.00;102758.94;5015239;28;20559;-52
2023/12/16 07:52:37;;;;;;;0.30;0.20;;;;;;;6.91;100.00;102757.72;5014743;28;20431;-51
2023/12/16 07:55:04;;;;;;;0.30;0.20;;;;;;;6.80;100.00;102760.09;5019172;28;20514;-52
2023/12/16 07:57:31;;;;;;;0.30;0.20;;;;;;;6.73;100.00;102766.06;5012006;28;20455;-52
2023/12/16 07:59:58;;;;;;;0.30;0.20;;;;;;;6.87;100.00;102765.56;5017432;28;20452;-54
2023/12/16 08:02:24;;;;;;;0.30;0.20;;;;;;;6.90;100.00;102758.59;5009571;28;20460;-55
2023/12/16 08:04:53;;;;;;;0.30;0.20;;;;;;;6.91;100.00;102759.47;5017076;28;20464;-54
2023/12/16 08:07:20;;;;;;;0.30;0.20;;;;;;;6.93;100.00;102763.94;5012064;28;20526;-54
2023/12/16 08:09:47;;;;;;;0.30;0.20;;;;;;;7.06;100.00;102768.72;4998153;28;20552;-54
2023/12/16 08:12:13;;;;;;;0.30;0.20;;;;;;;6.98;100.00;102759.66;5003055;28;20850;-54
2023/12/16 08:14:40;;;;;;;0.30;0.20;;;;;;;7.00;100.00;102765.03;5000205;28;20536;-54
2023/12/16 08:17:06;;;;;;;0.30;0.20;;;;;;;7.12;100.00;102760.03;5004278;28;20503;-54
2023/12/16 08:19:33;;;;;;;0.30;0.20;;;;;;;7.15;100.00;102770.69;5003743;28;20531;-55
2023/12/16 08:22:01;;;;;;;0.30;0.20;;;;;;;7.13;100.00;102783.00;4997702;28;20479;-55
2023/12/16 08:24:29;;;;;;;0.30;0.20;;;;;;;7.25;100.00;102787.69;5000136;28;20449;-55
2023/12/16 08:26:56;;;;;;;0.30;0.20;;;;;;;7.32;100.00;102798.47;5007986;28;20507;-56
2023/12/16 08:29:22;;;;;;;0.30;0.20;;;;;;;7.37;100.00;102799.47;5012874;28;20972;-55
2023/12/16 08:31:48;;;;;;;0.30;0.20;;;;;;;7.47;100.00;102800.59;4997436;28;20495;-55
2023/12/16 08:34:15;;;;;;;0.30;0.20;;;;;;;7.32;100.00;102808.16;4989617;28;20916;-55
2023/12/16 08:36:42;;;;;;;0.30;0.20;;;;;;;7.19;100.00;102806.06;4995479;28;20458;-55
2023/12/16 08:39:08;;;;;;;0.30;0.20;;;;;;;7.15;100.00;102818.31;5006487;28;20540;-55
2023/12/16 08:41:34;;;;;;;0.30;0.20;;;;;;;7.10;100.00;102818.16;5000477;28;20504;-53
2023/12/16 08:44:03;;;;;;;0.30;0.20;;;;;;;7.29;100.00;102827.50;5001522;28;20454;-54
2023/12/16 08:46:29;;;;;;;0.30;0.20;;;;;;;7.40;100.00;102836.63;5007607;28;20465;-55
2023/12/16 08:48:56;;;;;;;1.73;1.63;;;;;;;7.43;100.00;102836.69;4994515;28;20493;-56
2023/12/16 08:51:23;;;;;;;0.30;0.20;;;;;;;7.53;99.87;102834.25;4994279;28;20477;-56
2023/12/16 08:53:50;;;;;;;0.30;0.20;;;;;;;7.61;100.00;102832.69;4994979;28;20489;-56
2023/12/16 08:56:17;;;;;;;0.30;0.20;;;;;;;7.70;100.00;102836.47;4999392;28;20463;-55
2023/12/16 08:58:46;;;;;;;0.30;0.20;;;;;;;7.70;100.00;102836.47;5000669;28;20456;-55
2023/12/16 09:01:13;;;;;;;0.30;0.20;;;;;;;7.70;100.00;102838.22;5005555;28;20513;-55
2023/12/16 09:03:43;;;;;;;0.30;0.20;;;;;;;7.67;100.00;102838.13;5006911;28;20453;-55
2023/12/16 09:06:10;;;;;;;0.30;0.20;;;;;;;7.72;100.00;102840.03;4994025;28;20454;-55
2023/12/16 09:08:37;;;;;;;0.30;0.20;;;;;;;7.67;100.00;102839.03;5006656;28;21035;-55
2023/12/16 09:11:04;;;;;;;0.30;0.20;;;;;;;7.73;100.00;102851.53;4993029;28;20564;-55
2023/12/16 09:13:31;;;;;;;0.30;0.20;;;;;;;7.79;100.00;102848.13;5002476;28;20527;-55
2023/12/16 09:15:58;;;;;;;0.30;0.20;;;;;;;7.86;100.00;102843.03;5010936;28;20448;-55
2023/12/16 09:18:25;;;;;;;0.30;0.20;;;;;;;7.89;100.00;102836.91;4999979;28;20481;-55
2023/12/16 09:20:51;;;;;;;0.30;0.20;;;;;;;7.96;100.00;102846.78;5009192;28;20508;-55
2023/12/16 09:23:18;;;;;;;0.30;0.20;;;;;;;7.95;100.00;102848.56;4998050;28;20534;-55
2023/12/16 09:25:44;;;;;;;0.30;0.20;;;;;;;7.98;100.00;102850.38;5002661;28;20587;-55
2023/12/16 09:28:11;;;;;;;0.30;0.20;;;;;;;7.99;99.00;102849.50;4993132;28;20566;-55
2023/12/16 09:30:37;;;;;;;0.30;0.20;;;;;;;8.03;99.93;102852.25;5002810;28;20468;-55
2023/12/16 09:33:04;;;;;;;0.30;0.20;;;;;;;8.09;100.00;102847.97;4999803;28;20456;-55
2023/12/16 09:35:31;;;;;;;0.30;0.20;;;;;;;8.32;98.12;102852.00;5003421;28;20926;-55
2023/12/16 09:37:58;;;;;;;0.30;0.20;;;;;;;8.33;97.08;102852.03;5008415;28;21017;-55
2023/12/16 09:40:24;;;;;;;0.30;0.20;;;;;;;8.32;96.90;102844.06;4999073;28;20548;-55
2023/12/16 09:42:52;;;;;;;0.30;0.20;;;;;;;8.35;97.86;102841.50;4997186;28;20449;-55
2023/12/16 09:45:18;;;;;;;0.30;0.20;;;;;;;8.35;97.99;102845.91;5002349;28;20449;-55
2023/12/16 09:47:45;;;;;;;0.30;0.20;;;;;;;8.37;97.37;102833.63;5002107;28;20857;-55
2023/12/16 09:50:12;;;;;;;0.30;0.20;;;;;;;8.30;97.99;102828.13;5003278;28;20503;-55
2023/12/16 09:52:41;;;;;;;0.30;0.20;;;;;;;8.34;98.05;102842.38;4995217;28;20822;-55
2023/12/16 09:55:08;;;;;;;0.30;0.20;;;;;;;8.36;98.02;102838.03;4992615;28;20951;-55
2023/12/16 09:57:37;;;;;;;0.30;0.20;;;;;;;8.38;96.86;102835.41;5006110;28;20540;-55
2023/12/16 10:00:05;;;;;;;0.30;0.20;;;;;;;8.25;96.90;102834.22;4996666;28;20969;-55
2023/12/16 10:02:31;;;;;;;0.30;0.20;;;;;;;8.32;97.25;102838.75;4991550;28;20457;-55
2023/12/16 10:04:58;;;;;;;0.30;0.20;;;;;;;8.29;96.82;102841.34;4995003;28;20811;-55
2023/12/16 10:07:25;;;;;;;0.30;0.20;;;;;;;8.28;95.36;102842.22;4989116;28;20446;-54
2023/12/16 10:09:52;;;;;;;0.30;0.20;;;;;;;8.22;95.68;102834.13;5000751;28;20878;-54
2023/12/16 10:12:19;;;;;;;0.30;0.20;;;;;;;8.26;94.38;102839.53;5005720;28;20463;-54
2023/12/16 10:14:47;;;;;;;0.30;0.20;;;;;;;8.24;95.72;102835.97;5004807;28;20930;-52
2023/12/16 10:17:18;;;;;;;0.30;0.20;;;;;;;8.29;95.04;102836.94;4999103;28;20430;-51
2023/12/16 10:19:45;;;;;;;0.30;0.20;;;;;;;8.46;95.13;102829.38;5006773;28;20942;-52
2023/12/16 10:22:13;;;;;;;0.30;0.20;;;;;;;8.46;94.73;102831.13;4986524;28;20453;-51
2023/12/16 10:24:41;;;;;;;0.30;0.20;;;;;;;8.64;94.00;102828.00;4999163;28;20544;-52
2023/12/16 10:27:09;;;;;;;0.30;0.20;;;;;;;8.70;94.13;102822.81;5005904;28;20467;-53
2023/12/16 10:29:39;;;;;;;0.30;0.20;;;;;;;8.74;93.11;102822.00;4993920;28;20528;-53
2023/12/16 10:32:19;;;;;;;0.30;0.20;;;;;;;8.80;92.88;102819.47;5001342;28;20477;-53
2023/12/16 10:34:45;;;;;;;0.30;0.20;;;;;;;8.74;92.77;102820.22;4998621;28;20516;-53
2023/12/16 10:37:12;;;;;;;0.30;0.20;;;;;;;8.84;92.04;102819.56;5002577;28;20449;-53
2023/12/16 10:39:38;;;;;;;0.30;0.20;;;;;;;9.00;91.76;102811.88;5005426;28;20420;-53
2023/12/16 10:42:04;;;;;;;0.30;0.20;;;;;;;9.04;91.90;102811.97;5001898;28;20913;-53
2023/12/16 10:44:31;;;;;;;0.30;0.20;;;;;;;9.02;92.52;102813.69;4998463;28;21039;-53
2023/12/16 10:46:58;;;;;;;0.30;0.20;;;;;;;8.96;91.80;102810.06;5002196;28;20459;-53
2023/12/16 10:49:29;;;;;;;0.50;0.50;;;;;;;9.27;90.99;102803.53;4996096;28;20501;-53
2023/12/16 10:52:06;;;;;;;0.30;0.20;;;;;;;9.49;88.30;102805.69;5001356;28;20476;-53
2023/12/16 10:54:39;;;;;;;0.30;0.20;;;;;;;9.62;86.07;102813.00;4992840;28;20449;-53
2023/12/16 10:57:15;;;;;;;0.30;0.20;;;;;;;9.64;85.00;102803.28;5005432;28;20527;-53
2023/12/16 10:59:54;;;;;;;0.30;0.20;;;;;;;9.68;84.44;102812.19;5004163;28;20507;-53
2023/12/16 11:02:26;;;;;;;0.30;0.20;;;;;;;9.80;83.71;102817.69;5005401;28;20445;-53
2023/12/16 11:05:05;;;;;;;0.30;0.20;;;;;;;9.82;82.45;102821.25;4994568;28;20449;-53
2023/12/16 11:07:36;;;;;;;0.30;0.20;;;;;;;10.05;81.19;102818.94;4997671;28;20449;-53
2023/12/16 11:10:05;;;;;;;0.30;0.20;;;;;;;10.03;81.00;102826.91;4998718;28;20512;-58
2023/12/16 11:12:35;;;;;;;0.30;0.20;;;;;;;9.82;80.66;102821.25;4986293;28;20936;-53
2023/12/16 11:15:04;;;;;;;0.30;0.20;;;;;;;9.85;80.86;102817.75;4998663;28;20432;-53
2023/12/16 11:17:41;;;;;;;0.30;0.20;;;;;;;9.93;80.57;102821.41;5004278;28;20452;-53
2023/12/16 11:20:16;;;;;;;0.30;0.20;;;;;;;10.08;80.27;102814.56;5005026;28;20472;-53
2023/12/16 11:22:52;;;;;;;0.30;0.20;;;;;;;10.04;79.83;102809.19;5002530;28;20448;-53
2023/12/16 11:25:20;;;;;;;0.30;0.20;;;;;;;10.02;79.21;102810.94;4998402;28;20444;-53